sim
Sign-in with your pilot id or email,
or register
Callsign
Passwort

Schedule Details

Flight Number: DLH762
Departure: Munich Airport (EDDM) at 11:15
Arrival: Delhi Indira Gandhi International Airport (VIDP) at 18:40
Route: Lufthansa Passenger Schedule. Enter filed route here before submitting Pirep.

Weather Information
Getting current METAR information for EDDM 240850Z 25008KT CAVOK 17/14 Q1011 NOSIG
Getting current METAR information for VIDP 240830Z 30003KT 4000 HZ SCT035 SCT100 34/24 Q1003 NOSIG

Schedule Frequency

Route Map